Weather History for KHQZ - August, 2013

Change the Weather History Date:

Thursday, August 8, 2013

  Actual Average (KDFW) Record (KDFW)
Temperature  
Mean Temperature 89 °F 86 °F  
Max Temperature 101 °F 97 °F 107 °F (1988)
Min Temperature 77 °F 76 °F 60 °F (1989)
Degree Days  
Heating Degree Days 0 0  
Month to date heating degree days 0  
Since 1 June heating degree days 0  
Since 1 July heating degree days 0  
Cooling Degree Days 24 21  
Month to date cooling degree days 168  
Year to date cooling degree days 1712  
Since 1 June cooling degree days 1290  
Growing Degree Days 39 (Base 50)    
Moisture  
Dew Point 65 °F    
Average Humidity 48    
Maximum Humidity 79    
Minimum Humidity 27    
Precipitation  
Precipitation 0.00 in 0.06 in 0.97 in (1939)
Month to date precipitation 0.44  
Year to date precipitation 22.64  
Sea Level Pressure  
Sea Level Pressure 29.85 in    
Wind  
Wind Speed 8 mph (South)    
Max Wind Speed 15 mph    
Max Gust Speed 18 mph    
Visibility 8 miles    
Events      
T = Trace of Precipitation, MM = Missing Value Source: NWS Daily Summary

Daily Weather History Graph

Daily Weather History Graph

Search for Another Location

Airport or City:

Trip Planner

Search our weather history database for the weather conditions in past years. The results will help you decide how hot, cold, wet, or windy it might be!

Date:

Astronomy

Aug. 08, 2013 Rise Set
Actual Time 6:45 AM CDT 8:17 PM CDT
Civil Twilight 6:18 AM CDT 8:44 PM CDT
Nautical Twilight 5:46 AM CDT 9:15 PM CDT
Astronomical Twilight 5:13 AM CDT 9:49 PM CDT
Moon 8:23 AM CDT (8/8) 9:08 PM CDT (8/8)
Length of Visible Light 14h 25m
Length of Day
13h 32m
Waxing Crescent, 3% of the Moon is Illuminated
Aug 8
Waxing Crescent
Aug 14
First Quarter
Aug 20
Full
Aug 28
Last Quarter
Sep 5
New

Hourly Weather History & Observations

Time (CDT) Temp. Heat Index Dew Point Humidity Pressure Visibility Wind Dir Wind Speed Gust Speed Precip Events Conditions
12:15 AM 82.6 °F 83.8 °F 63.3 °F 52% 29.84 in 10.0 mi SSE 8.1 mph - N/A   Scattered Clouds
12:35 AM 83.7 °F 84.5 °F 62.6 °F 49% 29.85 in 10.0 mi SSE 8.1 mph - N/A   Clear
12:55 AM 85.5 °F 85.9 °F 61.7 °F 45% 29.86 in 10.0 mi South 9.2 mph - N/A   Clear
1:15 AM 86.4 °F 86.5 °F 61.7 °F 43% 29.86 in 10.0 mi South 10.4 mph - N/A   Clear
1:35 AM 85.1 °F 85.9 °F 62.6 °F 47% 29.86 in 10.0 mi South 9.2 mph - N/A   Clear
1:55 AM 84.2 °F 85.4 °F 63.5 °F 50% 29.85 in 10.0 mi South 8.1 mph - N/A   Clear
2:15 AM 84.2 °F 85.6 °F 64.4 °F 51% 29.84 in 10.0 mi South 10.4 mph - N/A   Clear
2:35 AM 83.1 °F 84.8 °F 65.1 °F 54% 29.84 in 10.0 mi South 9.2 mph - N/A   Clear
2:55 AM 83.3 °F 85.3 °F 65.7 °F 55% 29.84 in 10.0 mi South 10.4 mph - N/A   Clear
3:15 AM 82.4 °F 84.6 °F 66.2 °F 58% 29.85 in 10.0 mi South 9.2 mph - N/A   Clear
3:35 AM 82.2 °F 84.7 °F 67.1 °F 60% 29.84 in 7.0 mi South 8.1 mph - N/A   Clear
3:55 AM 81.9 °F 84.4 °F 67.3 °F 61% 29.84 in 7.0 mi SSE 8.1 mph - N/A   Clear
4:15 AM 79.9 °F - 67.8 °F 66% 29.85 in 7.0 mi South 5.8 mph - N/A   Clear
4:35 AM 79.7 °F - 67.6 °F 66% 29.85 in 7.0 mi SSE 6.9 mph - N/A   Clear
4:55 AM 79.2 °F - 68.2 °F 69% 29.84 in 7.0 mi SSE 8.1 mph - N/A   Clear
5:15 AM 79.0 °F - 68.9 °F 71% 29.84 in 7.0 mi SSE 6.9 mph - N/A   Clear
5:35 AM 79.2 °F - 69.6 °F 72% 29.83 in 7.0 mi SSE 11.5 mph - N/A   Clear
5:55 AM 78.8 °F - 70.0 °F 74% 29.84 in 7.0 mi SSE 9.2 mph - N/A   Clear
6:15 AM 78.4 °F - 70.3 °F 76% 29.85 in 7.0 mi South 8.1 mph - N/A   Clear
6:35 AM 78.1 °F - 70.7 °F 78% 29.85 in 7.0 mi SSE 10.4 mph - N/A   Clear
6:55 AM 77.7 °F - 70.7 °F 79% 29.86 in 5.0 mi SSE 9.2 mph - N/A   Clear
7:15 AM 77.7 °F - 70.9 °F 79% 29.86 in 5.0 mi SSE 9.2 mph - N/A   Clear
7:35 AM 78.1 °F - 71.1 °F 79% 29.87 in 5.0 mi South 10.4 mph - N/A   Clear
7:55 AM 78.8 °F - 71.2 °F 78% 29.87 in 5.0 mi South 10.4 mph - N/A   Clear
8:15 AM 79.5 °F - 71.4 °F 76% 29.87 in 5.0 mi South 11.5 mph - N/A   Clear
8:35 AM 80.4 °F 84.2 °F 71.6 °F 74% 29.88 in 5.0 mi South 11.5 mph - N/A   Clear
8:55 AM 81.3 °F 85.6 °F 71.6 °F 72% 29.88 in 5.0 mi South 15.0 mph - N/A   Clear
9:15 AM 82.8 °F 87.7 °F 71.6 °F 69% 29.88 in 7.0 mi South 12.7 mph - N/A   Clear
9:35 AM 84.2 °F 89.3 °F 71.1 °F 65% 29.89 in 7.0 mi SSW 11.5 mph 16.1 mph N/A   Clear
9:55 AM 86.0 °F 91.1 °F 70.5 °F 60% 29.90 in 7.0 mi SSW 10.4 mph - N/A   Clear
10:15 AM 87.3 °F 91.6 °F 69.4 °F 55% 29.90 in 7.0 mi SW 9.2 mph - N/A   Clear
10:35 AM 88.3 °F 92.4 °F 68.9 °F 52% 29.90 in 7.0 mi South 10.4 mph - N/A   Clear
10:55 AM 89.6 °F 93.4 °F 68.4 °F 49% 29.90 in 7.0 mi SSW 9.2 mph - N/A   Clear
11:15 AM 91.4 °F 94.9 °F 67.6 °F 45% 29.90 in 7.0 mi SSW 9.2 mph - N/A   Clear
11:35 AM 93.0 °F 96.9 °F 67.5 °F 43% 29.90 in 7.0 mi South 8.1 mph - N/A   Clear
11:55 AM 93.4 °F 96.1 °F 65.8 °F 40% 29.90 in 7.0 mi SW 4.6 mph - N/A   Clear
12:15 PM 95.0 °F 98.5 °F 66.4 °F 39% 29.90 in 7.0 mi SW 9.2 mph - N/A   Clear
12:35 PM 95.5 °F 98.4 °F 65.5 °F 37% 29.89 in 7.0 mi South 6.9 mph - N/A   Clear
12:55 PM 96.6 °F 99.8 °F 65.3 °F 36% 29.88 in 7.0 mi South 6.9 mph - N/A   Clear
1:15 PM 97.5 °F 100.3 °F 64.6 °F 34% 29.88 in 7.0 mi South 3.5 mph - N/A   Clear
1:35 PM 97.9 °F 100.3 °F 64.4 °F 33% 29.87 in 7.0 mi South 9.2 mph 18.4 mph N/A   Clear
1:55 PM 97.9 °F 100.3 °F 64.0 °F 33% 29.87 in 7.0 mi South 10.4 mph - N/A   Clear
2:15 PM 99.1 °F 101.4 °F 63.1 °F 31% 29.86 in 7.0 mi SSW 10.4 mph - N/A   Clear
2:35 PM 99.3 °F 101.7 °F 64.0 °F 31% 29.86 in 7.0 mi South 9.2 mph 17.3 mph N/A   Scattered Clouds
2:55 PM 100.4 °F 102.4 °F 63.0 °F 29% 29.85 in 7.0 mi SSW 10.4 mph - N/A   Clear
3:15 PM 100.0 °F 101.8 °F 62.1 °F 29% 29.84 in 7.0 mi SSW 11.5 mph - N/A   Clear
3:35 PM 101.1 °F 102.4 °F 61.3 °F 27% 29.83 in 7.0 mi SSW 9.2 mph - N/A   Scattered Clouds
3:55 PM 99.5 °F 100.9 °F 61.7 °F 29% 29.83 in 7.0 mi SSW 8.1 mph - N/A   Clear
4:15 PM 99.0 °F 100.0 °F 61.5 °F 29% 29.83 in 7.0 mi South 8.1 mph - N/A   Clear
4:35 PM 99.1 °F 100.3 °F 61.9 °F 29% 29.82 in 7.0 mi SSE 6.9 mph - N/A   Clear
4:55 PM 99.1 °F 100.3 °F 61.7 °F 29% 29.81 in 7.0 mi SE 3.5 mph - N/A   Clear
5:15 PM 99.1 °F 100.3 °F 61.5 °F 29% 29.81 in 7.0 mi SE 6.9 mph - N/A   Clear
5:35 PM 100.8 °F 101.9 °F 61.2 °F 27% 29.80 in 7.0 mi SSE 10.4 mph - N/A   Clear
5:55 PM 100.0 °F 100.7 °F 60.8 °F 27% 29.80 in 7.0 mi South 9.2 mph - N/A   Clear
6:15 PM 99.9 °F 100.4 °F 60.4 °F 27% 29.79 in 7.0 mi South 9.2 mph - N/A   Clear
6:35 PM 99.5 °F 99.9 °F 60.4 °F 27% 29.78 in 7.0 mi South 8.1 mph - N/A   Clear
6:55 PM 98.8 °F 98.7 °F 59.5 °F 27% 29.78 in 7.0 mi SSE 8.1 mph - N/A   Clear
7:15 PM 97.9 °F 97.8 °F 59.2 °F 28% 29.78 in 10.0 mi South 5.8 mph - N/A   Clear
7:35 PM 95.7 °F 95.9 °F 60.3 °F 31% 29.78 in 10.0 mi South 4.6 mph - N/A   Clear
7:55 PM 93.9 °F 93.6 °F 60.3 °F 32% 29.80 in 7.0 mi SSE 4.6 mph - N/A   Clear
8:15 PM 92.3 °F 92.0 °F 60.4 °F 34% 29.80 in 7.0 mi SSE 5.8 mph - N/A   Clear
8:35 PM 90.3 °F 90.5 °F 61.2 °F 38% 29.81 in 10.0 mi SSE 6.9 mph - N/A   Clear
8:55 PM 88.2 °F 88.4 °F 61.9 °F 41% 29.82 in 10.0 mi SSE 3.5 mph - N/A   Scattered Clouds
9:15 PM 87.6 °F 87.9 °F 62.1 °F 42% 29.83 in 10.0 mi SSE 5.8 mph - N/A   Clear
9:35 PM 87.6 °F 87.7 °F 61.5 °F 41% 29.83 in 10.0 mi SSE 4.6 mph - N/A   Clear
9:55 PM 86.5 °F 86.8 °F 61.7 °F 43% 29.84 in 10.0 mi SE 4.6 mph - N/A   Clear
10:15 PM 84.4 °F 85.2 °F 62.6 °F 48% 29.84 in 10.0 mi ESE 5.8 mph - N/A   Clear
10:35 PM 83.8 °F 84.9 °F 63.5 °F 50% 29.85 in 10.0 mi ESE 3.5 mph - N/A   Clear
10:55 PM 83.7 °F 84.5 °F 62.6 °F 49% 29.85 in 10.0 mi SE 3.5 mph - N/A   Clear
11:15 PM 82.6 °F 83.6 °F 62.6 °F 51% 29.85 in 10.0 mi SE 3.5 mph - N/A   Clear
11:35 PM 82.9 °F 84.0 °F 63.0 °F 51% 29.85 in 10.0 mi ESE 3.5 mph - N/A   Clear
11:55 PM 82.0 °F 83.3 °F 63.1 °F 53% 29.85 in 10.0 mi ESE 5.8 mph - N/A   Clear